createdAt,value
2018-04-18T00:00:50.718Z,9.65
2018-04-18T00:01:50.640Z,9.74
2018-04-18T00:02:50.567Z,9.72
2018-04-18T00:03:50.485Z,9.72
2018-04-18T00:04:50.416Z,9.75
2018-04-18T00:05:50.330Z,9.78
2018-04-18T00:06:50.266Z,9.68
2018-04-18T00:07:50.173Z,9.83
2018-04-18T00:08:50.110Z,9.80
2018-04-18T00:09:50.025Z,9.75
2018-04-18T00:10:49.958Z,9.74
2018-04-18T00:11:49.874Z,9.78
2018-04-18T00:12:49.808Z,9.75
2018-04-18T00:13:49.722Z,9.80
2018-04-18T00:14:49.654Z,9.80
2018-04-18T00:15:49.571Z,9.71
2018-04-18T00:16:49.503Z,9.65
2018-04-18T00:17:49.415Z,9.68
2018-04-18T00:18:49.349Z,9.74
2018-04-18T00:19:49.266Z,9.70
2018-04-18T00:20:49.196Z,9.70
2018-04-18T00:21:49.113Z,9.71
2018-04-18T00:22:49.042Z,9.58
2018-04-18T00:23:48.969Z,9.60
2018-04-18T00:24:48.892Z,9.64
2018-04-18T00:25:48.809Z,9.50
2018-04-18T00:26:48.777Z,9.49
2018-04-18T00:27:48.657Z,9.32
2018-04-18T00:28:48.586Z,9.28
2018-04-18T00:29:48.503Z,9.24
2018-04-18T00:30:48.435Z,9.02
2018-04-18T00:31:48.349Z,9.12
2018-04-18T00:32:48.284Z,9.00
2018-04-18T00:33:48.202Z,9.02
2018-04-18T00:34:48.124Z,9.03
2018-04-18T00:35:48.047Z,9.00
2018-04-18T00:36:47.977Z,8.98
2018-04-18T00:37:47.894Z,9.02
2018-04-18T00:38:47.825Z,9.03
2018-04-18T00:39:47.740Z,9.09
2018-04-18T00:40:47.672Z,9.10
2018-04-18T00:41:47.588Z,9.14
2018-04-18T00:42:47.528Z,9.14
2018-04-18T00:43:47.437Z,9.17
2018-04-18T00:44:47.367Z,9.17
2018-04-18T00:45:47.281Z,9.17
2018-04-18T00:46:47.214Z,9.10
2018-04-18T00:47:47.130Z,8.97
2018-04-18T00:48:47.059Z,8.91
2018-04-18T00:49:46.973Z,9.00
2018-04-18T00:50:46.916Z,8.88
2018-04-18T00:51:46.823Z,8.87
2018-04-18T00:52:46.752Z,8.87
2018-04-18T00:53:46.674Z,8.84
2018-04-18T00:54:46.601Z,8.87
2018-04-18T00:55:46.518Z,8.73
2018-04-18T00:56:46.452Z,8.79
2018-04-18T00:57:46.364Z,8.62
2018-04-18T00:58:46.295Z,8.70
2018-04-18T00:59:46.210Z,8.61
2018-04-18T01:00:46.140Z,8.57
2018-04-18T01:01:46.058Z,8.58
2018-04-18T01:02:45.984Z,8.58
2018-04-18T01:03:45.905Z,8.66
2018-04-18T01:04:45.842Z,8.65
2018-04-18T01:05:45.751Z,8.69
2018-04-18T01:06:45.684Z,8.70
2018-04-18T01:07:45.597Z,8.82
2018-04-18T01:08:45.527Z,8.73
2018-04-18T01:09:45.445Z,8.77
2018-04-18T01:10:45.375Z,8.88
2018-04-18T01:11:45.291Z,8.85
2018-04-18T01:12:45.226Z,8.91
2018-04-18T01:13:45.137Z,8.76
2018-04-18T01:14:45.068Z,8.80
2018-04-18T01:15:44.986Z,8.82
2018-04-18T01:16:44.967Z,8.77
2018-04-18T01:17:44.833Z,8.84
2018-04-18T01:18:44.768Z,8.79
2018-04-18T01:19:44.676Z,8.84
2018-04-18T01:20:44.614Z,8.76
2018-04-18T01:21:44.533Z,8.77
2018-04-18T01:22:44.453Z,8.77
2018-04-18T01:23:44.369Z,8.82
2018-04-18T01:24:44.304Z,8.77
2018-04-18T01:25:44.218Z,8.79
2018-04-18T01:26:45.151Z,8.77
2018-04-18T01:27:44.067Z,8.75
2018-04-18T01:28:43.994Z,8.73
2018-04-18T01:29:43.910Z,8.70
2018-04-18T01:30:43.846Z,8.79
2018-04-18T01:31:43.759Z,8.72
2018-04-18T01:32:43.689Z,8.69
2018-04-18T01:33:43.603Z,8.61
2018-04-18T01:34:43.534Z,8.51
2018-04-18T01:35:44.459Z,8.42
2018-04-18T01:36:43.376Z,8.24
2018-04-18T01:37:43.311Z,8.24
2018-04-18T01:38:43.215Z,8.12
2018-04-18T01:39:43.146Z,8.12
2018-04-18T01:40:43.067Z,8.14
2018-04-18T01:41:42.995Z,8.01
2018-04-18T01:42:42.911Z,7.99
2018-04-18T01:43:42.841Z,8.12
2018-04-18T01:44:42.758Z,8.12
2018-04-18T01:45:42.683Z,8.12
2018-04-18T01:46:42.607Z,8.21
2018-04-18T01:47:42.533Z,8.15
2018-04-18T01:48:42.454Z,8.17
2018-04-18T01:49:42.383Z,8.18
2018-04-18T01:50:42.298Z,8.07
2018-04-18T01:51:42.226Z,8.09
2018-04-18T01:52:42.144Z,8.22
2018-04-18T01:53:42.075Z,8.18
2018-04-18T01:54:41.994Z,8.15
2018-04-18T01:55:41.920Z,8.19
2018-04-18T01:56:41.834Z,8.19
2018-04-18T01:57:41.768Z,8.01
2018-04-18T01:58:41.681Z,7.99
2018-04-18T01:59:41.623Z,7.93
2018-04-18T02:00:41.527Z,7.94
2018-04-18T02:01:41.466Z,7.97
2018-04-18T02:02:41.371Z,7.88
2018-04-18T02:03:41.305Z,7.91
2018-04-18T02:04:41.220Z,7.88
2018-04-18T02:05:41.147Z,7.83
2018-04-18T02:06:41.063Z,7.82
2018-04-18T02:07:40.997Z,7.79
2018-04-18T02:08:40.918Z,7.86
2018-04-18T02:09:40.839Z,7.78
2018-04-18T02:10:40.760Z,7.83
2018-04-18T02:11:40.683Z,7.82
2018-04-18T02:12:40.606Z,7.82
2018-04-18T02:13:40.529Z,7.90
2018-04-18T02:14:40.446Z,7.85
2018-04-18T02:15:40.378Z,7.88
2018-04-18T02:16:40.299Z,7.90
2018-04-18T02:17:40.231Z,7.83
2018-04-18T02:18:40.143Z,7.83
2018-04-18T02:19:40.068Z,7.82
2018-04-18T02:20:39.982Z,7.81
2018-04-18T02:21:39.913Z,7.82
2018-04-18T02:22:39.828Z,7.75
2018-04-18T02:23:39.761Z,7.73
2018-04-18T02:24:39.676Z,7.70
2018-04-18T02:25:39.599Z,7.57
2018-04-18T02:26:39.520Z,7.63
2018-04-18T02:27:39.448Z,7.60
2018-04-18T02:28:39.365Z,7.55
2018-04-18T02:29:39.297Z,7.53
2018-04-18T02:30:39.213Z,7.44
2018-04-18T02:31:39.142Z,7.49
2018-04-18T02:32:39.057Z,7.44
2018-04-18T02:33:38.986Z,7.48
2018-04-18T02:34:38.904Z,7.47
2018-04-18T02:35:38.835Z,7.56
2018-04-18T02:36:38.746Z,7.62
2018-04-18T02:37:38.677Z,7.52
2018-04-18T02:38:38.593Z,7.48
2018-04-18T02:39:38.522Z,7.47
2018-04-18T02:40:38.436Z,7.42
2018-04-18T02:41:38.376Z,7.42
2018-04-18T02:42:38.282Z,7.45
2018-04-18T02:43:38.212Z,7.41
2018-04-18T02:44:38.127Z,7.41
2018-04-18T02:45:39.059Z,7.42
2018-04-18T02:46:37.978Z,7.42
2018-04-18T02:47:37.904Z,7.41
2018-04-18T02:48:37.819Z,7.31
2018-04-18T02:49:37.745Z,7.34
2018-04-18T02:50:37.671Z,7.35
2018-04-18T02:51:37.593Z,7.34
2018-04-18T02:52:37.508Z,7.34
2018-04-18T02:53:37.436Z,7.41
2018-04-18T02:54:37.365Z,7.37
2018-04-18T02:55:37.284Z,7.30
2018-04-18T02:56:37.201Z,7.31
2018-04-18T02:57:37.130Z,7.42
2018-04-18T02:58:37.043Z,7.41
2018-04-18T02:59:36.973Z,7.34
2018-04-18T03:00:36.883Z,7.47
2018-04-18T03:01:36.823Z,7.42
2018-04-18T03:02:36.732Z,7.44
2018-04-18T03:03:36.668Z,7.39
2018-04-18T03:04:36.583Z,7.34
2018-04-18T03:05:36.511Z,7.42
2018-04-18T03:06:36.421Z,7.38
2018-04-18T03:07:36.354Z,7.45
2018-04-18T03:08:36.271Z,7.41
2018-04-18T03:09:36.198Z,7.44
2018-04-18T03:10:36.110Z,7.41
2018-04-18T03:11:36.043Z,7.44
2018-04-18T03:12:35.959Z,7.42
2018-04-18T03:13:35.887Z,7.47
2018-04-18T03:14:35.804Z,7.49
2018-04-18T03:15:35.735Z,7.52
2018-04-18T03:16:35.651Z,7.52
2018-04-18T03:17:35.578Z,7.55
2018-04-18T03:18:35.493Z,7.48
2018-04-18T03:19:35.422Z,7.47
2018-04-18T03:20:35.336Z,7.49
2018-04-18T03:21:35.268Z,7.42
2018-04-18T03:22:35.179Z,7.45
2018-04-18T03:23:35.114Z,7.42
2018-04-18T03:24:35.026Z,7.44
2018-04-18T03:25:34.953Z,7.45
2018-04-18T03:26:34.934Z,7.59
2018-04-18T03:27:34.804Z,7.47
2018-04-18T03:28:34.728Z,7.57
2018-04-18T03:29:34.653Z,7.52
2018-04-18T03:30:34.568Z,7.53
2018-04-18T03:31:34.494Z,7.52
2018-04-18T03:32:34.410Z,7.48
2018-04-18T03:33:34.357Z,7.55
2018-04-18T03:34:34.254Z,7.52
2018-04-18T03:35:34.202Z,7.56
2018-04-18T03:36:34.098Z,7.55
2018-04-18T03:37:34.029Z,7.56
2018-04-18T03:38:33.942Z,7.47
2018-04-18T03:39:33.880Z,7.49
2018-04-18T03:40:33.789Z,7.45
2018-04-18T03:41:33.715Z,7.38
2018-04-18T03:42:33.631Z,7.27
2018-04-18T03:43:33.568Z,7.23
2018-04-18T03:44:33.479Z,7.21
2018-04-18T03:45:33.406Z,7.09
2018-04-18T03:46:33.320Z,7.11
2018-04-18T03:47:33.292Z,6.98
2018-04-18T03:48:33.167Z,6.91
2018-04-18T03:49:33.098Z,6.83
2018-04-18T03:50:33.014Z,6.81
2018-04-18T03:51:32.942Z,6.83
2018-04-18T03:52:32.854Z,6.83
2018-04-18T03:53:32.786Z,6.83
2018-04-18T03:54:32.696Z,6.72
2018-04-18T03:55:32.630Z,6.76
2018-04-18T03:56:32.545Z,6.76
2018-04-18T03:57:32.474Z,6.75
2018-04-18T03:58:32.388Z,6.75
2018-04-18T03:59:32.316Z,6.81
2018-04-18T04:00:32.244Z,6.90
2018-04-18T04:01:32.154Z,6.87
2018-04-18T04:02:32.097Z,6.98
2018-04-18T04:03:32.002Z,6.94
2018-04-18T04:04:31.935Z,6.98
2018-04-18T04:05:31.849Z,6.98
2018-04-18T04:06:31.779Z,7.08
2018-04-18T04:07:32.582Z,6.98
2018-04-18T04:08:31.616Z,6.93
2018-04-18T04:09:31.532Z,7.01
2018-04-18T04:10:31.478Z,6.90
2018-04-18T04:11:31.378Z,6.78
2018-04-18T04:12:31.309Z,6.87
2018-04-18T04:13:31.221Z,6.83
2018-04-18T04:14:31.151Z,6.84
2018-04-18T04:15:31.069Z,6.87
2018-04-18T04:16:31.023Z,6.86
2018-04-18T04:17:30.910Z,6.69
2018-04-18T04:18:30.840Z,6.69
2018-04-18T04:19:30.755Z,6.66
2018-04-18T04:20:30.686Z,6.63
2018-04-18T04:21:30.602Z,6.54
2018-04-18T04:22:30.527Z,6.54
2018-04-18T04:23:30.444Z,6.62
2018-04-18T04:24:30.377Z,6.54
2018-04-18T04:25:30.287Z,6.57
2018-04-18T04:26:30.223Z,6.45
2018-04-18T04:27:30.134Z,6.41
2018-04-18T04:28:30.060Z,6.36
2018-04-18T04:29:29.976Z,6.34
2018-04-18T04:30:29.904Z,6.34
2018-04-18T04:31:29.823Z,6.30
2018-04-18T04:32:29.751Z,6.27
2018-04-18T04:33:29.669Z,6.29
2018-04-18T04:34:29.594Z,6.30
2018-04-18T04:35:29.509Z,6.32
2018-04-18T04:36:29.439Z,6.37
2018-04-18T04:37:29.353Z,6.41
2018-04-18T04:38:29.281Z,6.50
2018-04-18T04:39:29.195Z,6.52
2018-04-18T04:40:29.130Z,6.60
2018-04-18T04:41:29.041Z,6.65
2018-04-18T04:42:28.970Z,6.62
2018-04-18T04:43:28.886Z,6.69
2018-04-18T04:44:28.823Z,6.66
2018-04-18T04:45:28.728Z,6.62
2018-04-18T04:46:28.662Z,6.62
2018-04-18T04:47:28.574Z,6.63
2018-04-18T04:48:28.495Z,6.51
2018-04-18T04:49:28.493Z,6.42
2018-04-18T04:50:28.336Z,6.44
2018-04-18T04:51:28.308Z,6.55
2018-04-18T04:52:28.181Z,6.47
2018-04-18T04:53:28.211Z,6.55
2018-04-18T04:54:28.029Z,6.59
2018-04-18T04:55:28.024Z,6.52
2018-04-18T04:56:27.897Z,6.62
2018-04-18T04:57:27.829Z,6.59
2018-04-18T04:58:27.711Z,6.54
2018-04-18T04:59:27.742Z,6.66
2018-04-18T05:00:27.553Z,6.62
2018-04-18T05:01:27.478Z,6.66
2018-04-18T05:02:27.410Z,6.70
2018-04-18T05:03:27.361Z,6.68
2018-04-18T05:04:27.250Z,6.70
2018-04-18T05:05:27.270Z,6.70
2018-04-18T05:06:27.095Z,6.76
2018-04-18T05:07:27.078Z,6.73
2018-04-18T05:08:26.932Z,6.66
2018-04-18T05:09:26.992Z,6.70
2018-04-18T05:10:26.776Z,6.69
2018-04-18T05:11:26.933Z,6.72
2018-04-18T05:12:26.625Z,6.76
2018-04-18T05:13:26.611Z,6.78
2018-04-18T05:14:26.462Z,6.76
2018-04-18T05:15:26.389Z,6.83
2018-04-18T05:16:26.307Z,6.80
2018-04-18T05:17:26.331Z,6.83
2018-04-18T05:18:26.145Z,6.84
2018-04-18T05:19:26.137Z,6.96
2018-04-18T05:20:25.993Z,6.98
2018-04-18T05:21:27.085Z,6.93
2018-04-18T05:22:25.837Z,6.96
2018-04-18T05:23:25.858Z,6.99
2018-04-18T05:24:25.681Z,7.08
2018-04-18T05:25:25.672Z,6.98
2018-04-18T05:26:25.521Z,7.06
2018-04-18T05:27:25.580Z,7.12
2018-04-18T05:28:25.369Z,7.16
2018-04-18T05:29:25.391Z,7.13
2018-04-18T05:30:25.212Z,7.26
2018-04-18T05:31:25.197Z,7.19
2018-04-18T05:32:25.064Z,7.29
2018-04-18T05:33:25.009Z,7.29
2018-04-18T05:34:24.905Z,7.31
2018-04-18T05:35:24.819Z,7.31
2018-04-18T05:36:24.745Z,7.39
2018-04-18T05:37:24.757Z,7.45
2018-04-18T05:38:24.592Z,7.44
2018-04-18T05:39:24.537Z,7.60
2018-04-18T05:40:24.433Z,7.67
2018-04-18T05:41:24.449Z,7.55
2018-04-18T05:42:24.275Z,7.72
2018-04-18T05:43:24.257Z,7.67
2018-04-18T05:44:24.129Z,7.63
2018-04-18T05:45:24.042Z,7.76
2018-04-18T05:46:24.074Z,7.75
2018-04-18T05:47:23.887Z,7.76
2018-04-18T05:48:23.885Z,7.79
2018-04-18T05:49:23.732Z,7.90
2018-04-18T05:50:23.794Z,7.88
2018-04-18T05:51:23.578Z,7.90
2018-04-18T05:52:23.602Z,8.01
2018-04-18T05:53:23.419Z,7.99
2018-04-18T05:54:23.413Z,8.07
2018-04-18T05:55:23.292Z,8.07
2018-04-18T05:56:23.321Z,8.15
2018-04-18T05:57:23.110Z,8.11
2018-04-18T05:58:23.133Z,8.17
2018-04-18T05:59:22.960Z,8.24
2018-04-18T06:00:22.942Z,8.22
2018-04-18T06:01:22.801Z,8.29
2018-04-18T06:02:22.851Z,8.25
2018-04-18T06:03:22.644Z,8.33
2018-04-18T06:04:22.662Z,8.43
2018-04-18T06:05:22.488Z,8.43
2018-04-18T06:06:22.469Z,8.47
2018-04-18T06:07:22.332Z,8.57
2018-04-18T06:08:22.259Z,8.54
2018-04-18T06:09:22.294Z,8.70
2018-04-18T06:10:22.104Z,8.72
2018-04-18T06:11:22.097Z,8.69
2018-04-18T06:12:21.946Z,8.77
2018-04-18T06:13:22.006Z,8.93
2018-04-18T06:14:21.791Z,8.98
2018-04-18T06:15:21.817Z,8.95
2018-04-18T06:16:21.638Z,9.09
2018-04-18T06:17:21.626Z,9.06
2018-04-18T06:18:21.484Z,9.02
2018-04-18T06:19:21.560Z,9.20
2018-04-18T06:20:21.329Z,9.25
2018-04-18T06:21:21.347Z,9.14
2018-04-18T06:22:21.177Z,9.27
2018-04-18T06:23:21.262Z,9.40
2018-04-18T06:24:21.016Z,9.34
2018-04-18T06:25:21.066Z,9.38
2018-04-18T06:26:20.868Z,9.43
2018-04-18T06:27:20.879Z,9.49
2018-04-18T06:28:20.719Z,9.52
2018-04-18T06:29:20.785Z,9.58
2018-04-18T06:30:20.558Z,9.65
2018-04-18T06:31:20.550Z,9.72
2018-04-18T06:32:20.397Z,9.78
2018-04-18T06:33:20.355Z,9.86
2018-04-18T06:34:20.247Z,9.85
2018-04-18T06:35:20.272Z,9.92
2018-04-18T06:36:20.093Z,10.07
2018-04-18T06:37:20.074Z,10.06
2018-04-18T06:38:19.938Z,10.10
2018-04-18T06:39:19.883Z,10.26
2018-04-18T06:40:19.782Z,10.25
2018-04-18T06:41:19.796Z,10.33
2018-04-18T06:42:19.629Z,10.41
2018-04-18T06:43:19.607Z,10.51
2018-04-18T06:44:19.476Z,10.60
2018-04-18T06:45:19.513Z,10.65
2018-04-18T06:46:19.322Z,10.74
2018-04-18T06:47:19.321Z,10.80
2018-04-18T06:48:19.171Z,10.84
2018-04-18T06:49:19.131Z,10.88
2018-04-18T06:50:19.017Z,11.03
2018-04-18T06:51:19.046Z,10.98
2018-04-18T06:52:18.864Z,11.06
2018-04-18T06:53:18.856Z,11.11
2018-04-18T06:54:18.713Z,11.14
2018-04-18T06:55:18.659Z,11.36
2018-04-18T06:56:18.561Z,11.35
2018-04-18T06:57:18.569Z,11.43
2018-04-18T06:58:18.404Z,11.59
2018-04-18T06:59:18.383Z,11.59
2018-04-18T07:00:18.248Z,11.74
2018-04-18T07:01:18.294Z,11.79
2018-04-18T07:02:18.099Z,11.90
2018-04-18T07:03:18.145Z,12.02
2018-04-18T07:04:17.948Z,12.08
2018-04-18T07:05:17.906Z,12.13
2018-04-18T07:06:17.793Z,12.24
2018-04-18T07:07:17.819Z,12.28
2018-04-18T07:08:17.642Z,12.41
2018-04-18T07:09:17.626Z,12.46
2018-04-18T07:10:17.491Z,12.60
2018-04-18T07:11:17.435Z,12.60
2018-04-18T07:12:17.343Z,12.64
2018-04-18T07:13:17.344Z,12.71
2018-04-18T07:14:17.187Z,12.74
2018-04-18T07:15:18.179Z,12.86
2018-04-18T07:16:17.032Z,12.96
2018-04-18T07:17:17.065Z,13.00
2018-04-18T07:18:16.879Z,13.17
2018-04-18T07:19:16.874Z,13.22
2018-04-18T07:20:16.732Z,13.36
2018-04-18T07:21:16.681Z,13.40
2018-04-18T07:22:16.581Z,13.48
2018-04-18T07:23:16.598Z,13.56
2018-04-18T07:24:16.423Z,13.59
2018-04-18T07:25:16.402Z,13.65
2018-04-18T07:26:16.285Z,13.70
2018-04-18T07:27:16.313Z,13.86
2018-04-18T07:28:16.127Z,13.98
2018-04-18T07:29:16.122Z,14.03
2018-04-18T07:30:15.980Z,14.16
2018-04-18T07:31:15.927Z,14.29
2018-04-18T07:32:15.828Z,14.24
2018-04-18T07:33:15.839Z,14.39
2018-04-18T07:34:15.677Z,14.41
2018-04-18T07:35:15.650Z,14.54
2018-04-18T07:36:15.525Z,14.65
2018-04-18T07:37:15.568Z,14.64
2018-04-18T07:38:15.376Z,14.72
2018-04-18T07:39:15.367Z,14.88
2018-04-18T07:40:15.230Z,14.95
2018-04-18T07:41:15.178Z,15.13
2018-04-18T07:42:15.079Z,15.26
2018-04-18T07:43:15.089Z,15.27
2018-04-18T07:44:14.930Z,15.49
2018-04-18T07:45:14.898Z,15.55
2018-04-18T07:46:14.780Z,15.71
2018-04-18T07:47:14.813Z,15.81
2018-04-18T07:48:14.635Z,15.88
2018-04-18T07:49:14.616Z,16.00
2018-04-18T07:50:14.483Z,16.20
2018-04-18T07:51:14.525Z,16.22
2018-04-18T07:52:14.338Z,16.27
2018-04-18T07:53:14.336Z,16.40
2018-04-18T07:54:14.191Z,16.48
2018-04-18T07:55:14.141Z,16.55
2018-04-18T07:56:14.042Z,16.59
2018-04-18T07:57:14.053Z,16.71
2018-04-18T07:58:13.895Z,16.80
2018-04-18T07:59:13.862Z,16.82
2018-04-18T08:00:13.750Z,16.93
2018-04-18T08:01:13.680Z,17.13
2018-04-18T08:02:13.600Z,17.29
2018-04-18T08:03:13.580Z,17.38
2018-04-18T08:04:13.454Z,17.43
2018-04-18T08:05:13.493Z,17.47
2018-04-18T08:06:13.309Z,17.51
2018-04-18T08:07:13.300Z,17.70
2018-04-18T08:08:13.166Z,17.91
2018-04-18T08:09:13.109Z,17.92
2018-04-18T08:10:13.020Z,18.07
2018-04-18T08:11:12.951Z,18.22
2018-04-18T08:12:12.877Z,18.25
2018-04-18T08:13:12.830Z,18.35
2018-04-18T08:14:12.728Z,18.55
2018-04-18T08:15:12.743Z,18.67
2018-04-18T08:16:12.585Z,18.80
2018-04-18T08:17:12.550Z,18.83
2018-04-18T08:18:12.442Z,19.02
2018-04-18T08:19:12.465Z,19.14
2018-04-18T08:20:12.297Z,19.17
2018-04-18T08:21:12.266Z,19.25
2018-04-18T08:22:12.149Z,19.28
2018-04-18T08:23:12.177Z,19.23
2018-04-18T08:24:12.015Z,19.43
2018-04-18T08:25:11.989Z,19.45
2018-04-18T08:26:11.867Z,19.51
2018-04-18T08:27:11.899Z,19.60
2018-04-18T08:28:11.727Z,19.60
2018-04-18T08:29:11.706Z,19.72
2018-04-18T08:30:11.585Z,19.86
2018-04-18T08:31:11.519Z,19.93
2018-04-18T08:32:11.445Z,20.06
2018-04-18T08:33:11.382Z,20.12
2018-04-18T08:34:11.300Z,20.12
2018-04-18T08:35:11.335Z,20.20
2018-04-18T08:36:11.160Z,20.27
2018-04-18T08:37:11.100Z,20.51
2018-04-18T08:38:11.020Z,20.59
2018-04-18T08:39:11.056Z,20.62
2018-04-18T08:40:10.878Z,20.65
2018-04-18T08:41:10.867Z,20.64
2018-04-18T08:42:10.740Z,20.79
2018-04-18T08:43:10.775Z,20.79
2018-04-18T08:44:10.600Z,20.79
2018-04-18T08:45:10.541Z,20.98
2018-04-18T08:46:10.460Z,21.12
2018-04-18T08:47:10.501Z,21.16
2018-04-18T08:48:10.322Z,21.30
2018-04-18T08:49:10.302Z,21.35
2018-04-18T08:50:10.181Z,21.39
2018-04-18T08:51:10.217Z,21.39
2018-04-18T08:52:10.043Z,21.38
2018-04-18T08:53:10.023Z,21.42
2018-04-18T08:54:09.904Z,21.35
2018-04-18T08:55:09.933Z,21.42
2018-04-18T08:56:09.765Z,21.44
2018-04-18T08:57:09.742Z,21.51
2018-04-18T08:58:09.631Z,21.69
2018-04-18T08:59:09.653Z,21.70
2018-04-18T09:00:09.491Z,21.79
2018-04-18T09:01:09.461Z,21.70
2018-04-18T09:02:09.389Z,21.74
2018-04-18T09:03:09.372Z,21.81
2018-04-18T09:04:09.220Z,21.81
2018-04-18T09:05:09.183Z,21.86
2018-04-18T09:06:09.082Z,21.98
2018-04-18T09:07:09.092Z,22.00
2018-04-18T09:08:08.939Z,21.92
2018-04-18T09:09:08.899Z,22.04
2018-04-18T09:10:08.807Z,22.01
2018-04-18T09:11:08.811Z,22.01
2018-04-18T09:12:08.673Z,22.13
2018-04-18T09:13:08.617Z,22.16
2018-04-18T09:14:08.536Z,22.15
2018-04-18T09:15:08.534Z,22.26
2018-04-18T09:16:08.400Z,22.38
2018-04-18T09:17:08.437Z,22.42
2018-04-18T09:18:08.262Z,22.52
2018-04-18T09:19:08.248Z,22.65
2018-04-18T09:20:08.125Z,22.84
2018-04-18T09:21:08.161Z,22.87
2018-04-18T09:22:07.989Z,22.92
2018-04-18T09:23:07.932Z,22.94
2018-04-18T09:24:07.857Z,23.00
2018-04-18T09:25:07.880Z,22.89
2018-04-18T09:26:07.720Z,22.94
2018-04-18T09:27:07.650Z,22.89
2018-04-18T09:28:07.586Z,22.96
2018-04-18T09:29:07.600Z,23.02
2018-04-18T09:30:07.465Z,22.94
2018-04-18T09:31:07.407Z,22.86
2018-04-18T09:32:07.318Z,22.90
2018-04-18T09:33:07.316Z,22.94
2018-04-18T09:34:07.188Z,22.94
2018-04-18T09:35:07.123Z,23.00
2018-04-18T09:36:07.137Z,23.17
2018-04-18T09:37:06.986Z,23.15
2018-04-18T09:38:06.947Z,23.15
2018-04-18T09:39:06.848Z,23.09
2018-04-18T09:40:06.857Z,23.09
2018-04-18T09:41:06.716Z,23.14
2018-04-18T09:42:06.767Z,23.14
2018-04-18T09:43:06.581Z,23.20
2018-04-18T09:44:08.624Z,23.31
2018-04-18T09:45:06.468Z,23.23
2018-04-18T09:46:08.438Z,23.20
2018-04-18T09:47:06.314Z,23.27
2018-04-18T09:48:06.294Z,23.26
2018-04-18T09:49:06.185Z,23.27
2018-04-18T09:50:06.207Z,23.12
2018-04-18T09:51:06.051Z,23.12
2018-04-18T09:52:06.016Z,23.20
2018-04-18T09:53:05.917Z,23.20
2018-04-18T09:54:05.925Z,23.15
2018-04-18T09:55:05.785Z,23.34
2018-04-18T09:56:05.836Z,23.48
2018-04-18T09:57:05.652Z,23.60
2018-04-18T09:58:05.644Z,23.75
2018-04-18T09:59:05.527Z,23.78
2018-04-18T10:00:05.557Z,23.83
2018-04-18T10:01:05.387Z,23.93
2018-04-18T10:02:05.365Z,23.92
2018-04-18T10:03:05.260Z,23.89
2018-04-18T10:04:05.277Z,23.90
2018-04-18T10:05:05.125Z,23.65
2018-04-18T10:06:05.084Z,23.74
2018-04-18T10:07:04.993Z,23.78
2018-04-18T10:08:04.993Z,23.72
2018-04-18T10:09:04.863Z,23.89
2018-04-18T10:10:04.906Z,23.90
2018-04-18T10:11:04.732Z,24.00
2018-04-18T10:12:04.714Z,24.23
2018-04-18T10:13:04.599Z,24.30
2018-04-18T10:14:04.624Z,24.41
2018-04-18T10:15:04.467Z,24.47
2018-04-18T10:16:04.434Z,24.37
2018-04-18T10:17:04.342Z,24.44
2018-04-18T10:18:04.343Z,24.54
2018-04-18T10:19:04.211Z,24.47
2018-04-18T10:20:04.256Z,24.42
2018-04-18T10:21:04.076Z,24.44
2018-04-18T10:22:04.062Z,24.53
2018-04-18T10:23:03.971Z,24.44
2018-04-18T10:24:03.972Z,24.30
2018-04-18T10:25:03.817Z,24.29
2018-04-18T10:26:03.783Z,24.15
2018-04-18T10:27:03.691Z,24.26
2018-04-18T10:28:03.699Z,24.27
2018-04-18T10:29:03.566Z,24.29
2018-04-18T10:30:03.603Z,24.15
2018-04-18T10:31:03.424Z,24.15
2018-04-18T10:32:03.409Z,24.12
2018-04-18T10:33:03.295Z,24.16
2018-04-18T10:34:03.325Z,24.16
2018-04-18T10:35:03.164Z,24.05
2018-04-18T10:36:03.131Z,24.27
2018-04-18T10:37:03.034Z,24.26
2018-04-18T10:38:03.040Z,24.12
2018-04-18T10:39:02.906Z,24.10
2018-04-18T10:40:02.952Z,24.20
2018-04-18T10:41:02.774Z,24.19
2018-04-18T10:42:02.761Z,24.34
2018-04-18T10:43:02.645Z,24.40
2018-04-18T10:44:02.671Z,24.34
2018-04-18T10:45:02.516Z,24.29
2018-04-18T10:46:02.480Z,24.30
2018-04-18T10:47:02.387Z,24.44
2018-04-18T10:48:02.391Z,24.40
2018-04-18T10:49:02.264Z,24.45
2018-04-18T10:50:02.301Z,24.66
2018-04-18T10:51:02.160Z,24.57
2018-04-18T10:52:02.110Z,24.44
2018-04-18T10:53:02.003Z,24.52
2018-04-18T10:54:02.025Z,24.41
2018-04-18T10:55:01.875Z,24.37
2018-04-18T10:56:01.835Z,24.41
2018-04-18T10:57:01.748Z,24.47
2018-04-18T10:58:01.743Z,24.53
2018-04-18T10:59:01.616Z,24.66
2018-04-18T11:00:01.650Z,24.90
2018-04-18T11:01:01.486Z,25.09
2018-04-18T11:02:01.463Z,25.09
2018-04-18T11:03:01.356Z,25.05
2018-04-18T11:04:01.371Z,25.10
2018-04-18T11:05:01.230Z,25.22
2018-04-18T11:06:01.178Z,25.17
2018-04-18T11:07:01.098Z,25.20
2018-04-18T11:08:01.098Z,25.08
2018-04-18T11:09:00.971Z,25.05
2018-04-18T11:10:01.003Z,24.82
2018-04-18T11:11:00.841Z,24.76
2018-04-18T11:12:00.812Z,24.91
2018-04-18T11:13:00.710Z,25.10
2018-04-18T11:14:00.727Z,25.02
2018-04-18T11:15:00.582Z,25.20
2018-04-18T11:16:00.634Z,25.27
2018-04-18T11:17:00.458Z,25.42
2018-04-18T11:18:00.439Z,25.42
2018-04-18T11:19:00.326Z,25.62
2018-04-18T11:20:00.354Z,25.70
2018-04-18T11:21:00.196Z,25.67
2018-04-18T11:22:00.159Z,25.62
2018-04-18T11:23:00.071Z,25.57
2018-04-18T11:24:00.072Z,25.20
2018-04-18T11:24:59.943Z,25.00
2018-04-18T11:25:59.983Z,24.98
2018-04-18T11:26:59.847Z,24.88
2018-04-18T11:27:59.792Z,24.83
2018-04-18T11:28:59.686Z,24.95
2018-04-18T11:29:59.702Z,25.04
2018-04-18T11:30:59.560Z,24.95
2018-04-18T11:31:59.511Z,25.04
2018-04-18T11:32:59.429Z,25.00
2018-04-18T11:33:59.421Z,25.08
2018-04-18T11:34:59.301Z,24.98
2018-04-18T11:35:59.335Z,24.90
2018-04-18T11:36:59.175Z,25.00
2018-04-18T11:37:59.141Z,24.95
2018-04-18T11:38:59.050Z,25.00
2018-04-18T11:39:59.056Z,25.13
2018-04-18T11:40:58.920Z,25.23
2018-04-18T11:41:58.967Z,25.38
2018-04-18T11:42:58.791Z,25.34
2018-04-18T11:43:58.775Z,25.25
2018-04-18T11:44:58.663Z,25.15
2018-04-18T11:45:58.685Z,25.15
2018-04-18T11:46:58.537Z,25.31
2018-04-18T11:47:58.499Z,25.57
2018-04-18T11:48:58.416Z,25.71
2018-04-18T11:49:58.401Z,25.82
2018-04-18T11:50:58.282Z,25.94
2018-04-18T11:51:58.347Z,26.01
2018-04-18T11:52:58.148Z,26.07
2018-04-18T11:53:58.120Z,25.86
2018-04-18T11:54:58.023Z,25.59
2018-04-18T11:55:58.034Z,25.47
2018-04-18T11:56:57.897Z,25.47
2018-04-18T11:57:57.944Z,25.31
2018-04-18T11:58:57.769Z,25.30
2018-04-18T11:59:57.753Z,25.42
2018-04-18T12:00:57.644Z,25.41
2018-04-18T12:01:57.666Z,25.19
2018-04-18T12:02:57.514Z,25.13
2018-04-18T12:03:57.473Z,25.09
2018-04-18T12:04:57.386Z,24.91
2018-04-18T12:05:57.384Z,24.86
2018-04-18T12:06:57.258Z,24.94
2018-04-18T12:07:57.297Z,24.93
2018-04-18T12:08:57.128Z,24.94
2018-04-18T12:09:57.105Z,25.13
2018-04-18T12:10:57.004Z,25.17
2018-04-18T12:11:57.018Z,25.28
2018-04-18T12:12:56.877Z,25.31
2018-04-18T12:13:56.929Z,25.38
2018-04-18T12:14:56.749Z,25.38
2018-04-18T12:15:56.732Z,25.42
2018-04-18T12:16:56.617Z,25.42
2018-04-18T12:17:56.644Z,25.59
2018-04-18T12:18:57.205Z,25.74
2018-04-18T12:19:56.454Z,25.78
2018-04-18T12:20:56.365Z,25.71
2018-04-18T12:21:56.365Z,25.70
2018-04-18T12:22:56.266Z,25.68
2018-04-18T12:23:56.277Z,25.53
2018-04-18T12:24:56.112Z,25.56
2018-04-18T12:25:56.084Z,25.56
2018-04-18T12:26:55.985Z,25.49
2018-04-18T12:27:55.992Z,25.28
2018-04-18T12:28:55.857Z,25.27
2018-04-18T12:29:55.904Z,25.37
2018-04-18T12:30:55.729Z,25.45
2018-04-18T12:31:55.726Z,25.53
2018-04-18T12:32:55.607Z,25.62
2018-04-18T12:33:55.626Z,25.60
2018-04-18T12:34:55.476Z,25.70
2018-04-18T12:35:55.434Z,25.59
2018-04-18T12:36:55.352Z,25.52
2018-04-18T12:37:55.342Z,25.57
2018-04-18T12:38:55.224Z,25.53
2018-04-18T12:39:55.255Z,25.64
2018-04-18T12:40:55.104Z,25.59
2018-04-18T12:41:55.065Z,25.45
2018-04-18T12:42:54.965Z,25.40
2018-04-18T12:43:54.974Z,25.45
2018-04-18T12:44:54.838Z,25.49
2018-04-18T12:45:54.891Z,25.38
2018-04-18T12:46:54.717Z,25.42
2018-04-18T12:47:54.694Z,25.55
2018-04-18T12:48:54.585Z,25.40
2018-04-18T12:49:54.605Z,25.38
2018-04-18T12:50:54.457Z,25.45
2018-04-18T12:51:54.413Z,25.60
2018-04-18T12:52:54.330Z,25.72
2018-04-18T12:53:54.325Z,25.65
2018-04-18T12:54:54.201Z,25.64
2018-04-18T12:55:54.238Z,25.57
2018-04-18T12:56:54.079Z,25.60
2018-04-18T12:57:54.046Z,25.64
2018-04-18T12:58:53.949Z,25.64
2018-04-18T12:59:53.956Z,25.56
2018-04-18T13:00:53.825Z,25.56
2018-04-18T13:01:53.869Z,25.62
2018-04-18T13:02:53.693Z,25.70
2018-04-18T13:03:53.675Z,25.62
2018-04-18T13:04:53.566Z,25.57